createdAt,value
2022-08-03T00:00:56.347Z,6.30
2022-08-03T00:03:21.964Z,6.70
2022-08-03T00:06:04.703Z,6.00
2022-08-03T00:08:29.696Z,6.90
2022-08-03T00:10:52.324Z,6.00
2022-08-03T00:13:15.337Z,6.20
2022-08-03T00:15:37.983Z,7.00
2022-08-03T00:18:00.485Z,6.30
2022-08-03T00:20:23.504Z,6.10
2022-08-03T00:22:46.365Z,6.40
2022-08-03T00:25:09.009Z,5.90
2022-08-03T00:27:32.595Z,6.80
2022-08-03T00:29:59.488Z,6.00
2022-08-03T00:32:24.096Z,6.20
2022-08-03T00:34:58.544Z,5.70
2022-08-03T00:37:23.905Z,5.80
2022-08-03T00:40:04.272Z,5.70
2022-08-03T00:42:30.820Z,5.40
2022-08-03T00:44:55.861Z,4.80
2022-08-03T00:47:20.846Z,4.80
2022-08-03T00:49:43.788Z,4.60
2022-08-03T00:52:09.420Z,5.00
2022-08-03T00:54:33.501Z,5.00
2022-08-03T00:56:59.660Z,4.90
2022-08-03T00:59:22.881Z,5.10
2022-08-03T01:01:45.558Z,5.20
2022-08-03T01:04:08.297Z,5.00
2022-08-03T01:07:00.321Z,5.90
2022-08-03T01:09:33.600Z,5.40
2022-08-03T01:12:04.176Z,4.80
2022-08-03T01:14:32.698Z,4.60
2022-08-03T01:17:09.654Z,5.20
2022-08-03T01:19:53.669Z,5.00
2022-08-03T01:22:16.454Z,5.60
2022-08-03T01:24:58.867Z,5.20
2022-08-03T01:27:23.493Z,5.30
2022-08-03T01:29:48.857Z,5.00
2022-08-03T01:32:53.494Z,4.80
2022-08-03T01:35:01.181Z,4.80
2022-08-03T01:37:26.911Z,4.90
2022-08-03T01:39:51.130Z,5.10
2022-08-03T01:42:15.269Z,4.70
2022-08-03T01:44:40.553Z,4.20
2022-08-03T01:47:04.500Z,5.40
2022-08-03T01:49:28.746Z,5.40
2022-08-03T01:51:58.593Z,5.00
2022-08-03T01:54:28.044Z,5.50
2022-08-03T01:56:52.225Z,4.80
2022-08-03T01:59:19.071Z,4.30
2022-08-03T02:02:15.511Z,4.70
2022-08-03T02:04:29.261Z,4.70
2022-08-03T02:06:59.866Z,4.30
2022-08-03T02:09:27.099Z,4.70
2022-08-03T02:11:51.414Z,4.30
2022-08-03T02:14:19.186Z,4.90
2022-08-03T02:16:43.561Z,4.40
2022-08-03T02:19:07.541Z,4.30
2022-08-03T02:21:56.468Z,4.50
2022-08-03T02:24:17.188Z,4.70
2022-08-03T02:26:41.484Z,4.60
2022-08-03T02:29:07.157Z,6.20
2022-08-03T02:31:33.161Z,4.90
2022-08-03T02:34:03.714Z,4.60
2022-08-03T02:36:28.620Z,4.70
2022-08-03T02:38:58.211Z,5.30
2022-08-03T02:41:32.005Z,4.90
2022-08-03T02:44:06.391Z,5.00
2022-08-03T02:46:36.407Z,5.80
2022-08-03T02:49:00.770Z,5.60
2022-08-03T02:51:49.783Z,5.40
2022-08-03T02:54:16.628Z,5.30
2022-08-03T02:56:40.065Z,5.20
2022-08-03T02:59:03.250Z,5.30
2022-08-03T03:01:27.404Z,5.20
2022-08-03T03:03:50.969Z,5.60
2022-08-03T03:06:13.674Z,5.50
2022-08-03T03:08:39.075Z,5.70
2022-08-03T03:11:02.118Z,5.50
2022-08-03T03:13:27.691Z,5.40
2022-08-03T03:15:51.040Z,5.30
2022-08-03T03:18:16.792Z,5.00
2022-08-03T03:20:44.711Z,4.70
2022-08-03T03:23:09.023Z,4.80
2022-08-03T03:25:34.844Z,4.90
2022-08-03T03:27:57.860Z,5.30
2022-08-03T03:30:20.657Z,5.00
2022-08-03T03:32:46.055Z,4.70
2022-08-03T03:35:10.145Z,4.60
2022-08-03T03:37:32.991Z,4.80
2022-08-03T03:39:55.792Z,5.50
2022-08-03T03:42:18.629Z,5.40
2022-08-03T03:44:41.463Z,5.00
2022-08-03T03:47:04.309Z,5.30
2022-08-03T03:49:27.383Z,5.40
2022-08-03T03:51:52.969Z,5.20
2022-08-03T03:54:16.113Z,5.20
2022-08-03T03:56:38.840Z,5.20
2022-08-03T03:59:01.811Z,5.00
2022-08-03T04:01:27.257Z,5.00
2022-08-03T04:03:52.331Z,5.70
2022-08-03T04:06:33.635Z,5.40
2022-08-03T04:09:19.511Z,5.60
2022-08-03T04:11:45.928Z,5.70
2022-08-03T04:14:13.536Z,6.20
2022-08-03T04:16:43.997Z,6.00
2022-08-03T04:19:11.173Z,6.20
2022-08-03T04:21:37.979Z,5.90
2022-08-03T04:24:04.268Z,6.40
2022-08-03T04:26:30.610Z,6.10
2022-08-03T04:28:54.574Z,6.30
2022-08-03T04:31:18.113Z,6.30
2022-08-03T04:33:41.477Z,6.40
2022-08-03T04:36:05.217Z,7.00
2022-08-03T04:38:29.665Z,7.50
2022-08-03T04:40:53.161Z,8.80
2022-08-03T04:43:17.118Z,9.70
2022-08-03T04:45:40.817Z,9.20
2022-08-03T04:48:04.210Z,10.40
2022-08-03T04:50:28.256Z,9.90
2022-08-03T04:52:53.047Z,11.40
2022-08-03T04:55:28.462Z,10.90
2022-08-03T04:57:53.670Z,11.40
2022-08-03T05:00:16.685Z,10.50
2022-08-03T05:02:39.537Z,9.90
2022-08-03T05:05:04.846Z,10.30
2022-08-03T05:07:36.618Z,11.30
2022-08-03T05:10:02.980Z,10.00
2022-08-03T05:12:28.370Z,10.60
2022-08-03T05:14:56.095Z,10.70
2022-08-03T05:17:19.811Z,10.00
2022-08-03T05:19:42.425Z,10.70
2022-08-03T05:22:05.111Z,10.40
2022-08-03T05:24:27.920Z,10.70
2022-08-03T05:26:50.750Z,10.20
2022-08-03T05:29:13.414Z,10.30
2022-08-03T05:31:36.070Z,10.20
2022-08-03T05:33:58.972Z,10.50
2022-08-03T05:36:21.717Z,9.70
2022-08-03T05:38:44.386Z,10.20
2022-08-03T05:41:23.549Z,9.90
2022-08-03T05:43:52.842Z,10.90
2022-08-03T05:46:15.779Z,9.70
2022-08-03T05:48:38.712Z,10.30
2022-08-03T05:51:01.388Z,9.90
2022-08-03T05:53:24.461Z,9.70
2022-08-03T05:55:54.210Z,9.60
2022-08-03T05:58:20.863Z,9.70
2022-08-03T06:00:45.998Z,10.20
2022-08-03T06:03:11.122Z,10.50
2022-08-03T06:05:36.924Z,10.60
2022-08-03T06:08:09.907Z,31.70
2022-08-03T06:10:43.304Z,37.10
2022-08-03T06:13:06.051Z,9.80
2022-08-03T06:15:28.801Z,9.30
2022-08-03T06:17:57.608Z,10.30
2022-08-03T06:20:21.666Z,10.00
2022-08-03T06:22:50.828Z,9.50
2022-08-03T06:25:14.317Z,9.80
2022-08-03T06:27:40.355Z,9.60
2022-08-03T06:30:03.205Z,8.40
2022-08-03T06:32:26.376Z,8.40
2022-08-03T06:34:49.343Z,8.90
2022-08-03T06:37:12.267Z,8.50
2022-08-03T06:39:35.051Z,8.60
2022-08-03T06:41:58.389Z,8.40
2022-08-03T06:44:23.685Z,8.40
2022-08-03T06:46:48.912Z,8.80
2022-08-03T06:49:11.956Z,9.00
2022-08-03T06:52:06.262Z,8.30
2022-08-03T06:54:18.123Z,9.00
2022-08-03T06:56:40.705Z,9.00
2022-08-03T06:59:03.625Z,9.70
2022-08-03T07:01:26.381Z,9.20
2022-08-03T07:03:52.462Z,10.00
2022-08-03T07:06:17.953Z,9.80
2022-08-03T07:08:40.576Z,9.10
2022-08-03T07:11:03.142Z,9.20
2022-08-03T07:13:27.202Z,10.60
2022-08-03T07:15:55.315Z,8.70
2022-08-03T07:18:29.208Z,8.40
2022-08-03T07:20:52.926Z,8.90
2022-08-03T07:23:19.327Z,8.40
2022-08-03T07:25:42.223Z,9.00
2022-08-03T07:28:04.985Z,9.70
2022-08-03T07:30:28.038Z,9.80
2022-08-03T07:32:53.110Z,10.70
2022-08-03T07:35:25.258Z,9.50
2022-08-03T07:37:54.477Z,10.00
2022-08-03T07:40:17.993Z,10.10
2022-08-03T07:42:43.481Z,9.80
2022-08-03T07:45:08.803Z,10.10
2022-08-03T07:47:39.343Z,9.90
2022-08-03T07:50:02.559Z,10.10
2022-08-03T07:52:44.203Z,10.60
2022-08-03T07:55:07.539Z,9.80
2022-08-03T07:57:30.198Z,11.20
2022-08-03T07:59:56.824Z,10.20
2022-08-03T08:02:25.153Z,9.90
2022-08-03T08:04:47.796Z,9.70
2022-08-03T08:07:10.591Z,10.40
2022-08-03T08:09:33.871Z,9.70
2022-08-03T08:11:57.009Z,9.90
2022-08-03T08:14:22.017Z,11.20
2022-08-03T08:16:44.863Z,10.10
2022-08-03T08:19:10.167Z,8.80
2022-08-03T08:21:54.087Z,8.60
2022-08-03T08:24:20.417Z,7.30
2022-08-03T08:26:45.808Z,7.90
2022-08-03T08:29:08.529Z,7.50
2022-08-03T08:31:31.390Z,7.10
2022-08-03T08:34:04.775Z,6.50
2022-08-03T08:36:27.748Z,5.40
2022-08-03T08:38:53.301Z,6.10
2022-08-03T08:41:18.418Z,6.00
2022-08-03T08:43:41.712Z,5.60
2022-08-03T08:46:05.899Z,5.50
2022-08-03T08:48:30.447Z,5.60
2022-08-03T08:50:54.692Z,4.50
2022-08-03T08:53:20.647Z,4.70
2022-08-03T08:55:58.731Z,4.40
2022-08-03T08:58:28.470Z,4.50
2022-08-03T09:00:53.557Z,3.40
2022-08-03T09:03:26.198Z,2.70
2022-08-03T09:05:56.095Z,2.50
2022-08-03T09:08:21.891Z,3.10
2022-08-03T09:10:44.572Z,2.40
2022-08-03T09:13:08.429Z,2.40
2022-08-03T09:15:31.987Z,2.40
2022-08-03T09:17:58.883Z,2.60
2022-08-03T09:20:22.690Z,2.90
2022-08-03T09:23:19.003Z,2.90
2022-08-03T09:25:50.885Z,2.80
2022-08-03T09:28:52.512Z,3.10
2022-08-03T09:31:02.115Z,2.70
2022-08-03T09:33:24.935Z,3.20
2022-08-03T09:35:58.621Z,3.50
2022-08-03T09:38:27.586Z,3.60
2022-08-03T09:40:52.195Z,3.10
2022-08-03T09:43:18.245Z,3.10
2022-08-03T09:45:41.229Z,3.00
2022-08-03T09:48:23.002Z,3.40
2022-08-03T09:50:58.560Z,3.60
2022-08-03T09:53:57.114Z,3.10
2022-08-03T09:56:39.878Z,2.90
2022-08-03T09:59:04.947Z,3.00
2022-08-03T10:01:33.107Z,3.20
2022-08-03T10:04:03.878Z,3.90
2022-08-03T10:06:29.880Z,3.40
2022-08-03T10:09:07.581Z,3.70
2022-08-03T10:11:31.183Z,4.00
2022-08-03T10:14:01.180Z,3.70
2022-08-03T10:16:25.591Z,3.70
2022-08-03T10:18:48.658Z,3.80
2022-08-03T10:21:12.023Z,3.20
2022-08-03T10:23:35.328Z,3.50
2022-08-03T10:26:00.463Z,3.60
2022-08-03T10:28:23.391Z,4.00
2022-08-03T10:30:49.509Z,4.60
2022-08-03T10:33:51.764Z,3.80
2022-08-03T10:36:02.498Z,3.70
2022-08-03T10:38:40.762Z,4.20
2022-08-03T10:41:06.172Z,3.60
2022-08-03T10:43:36.451Z,3.30
2022-08-03T10:45:59.361Z,4.10
2022-08-03T10:48:22.710Z,3.30
2022-08-03T10:50:48.450Z,3.20
2022-08-03T10:53:11.490Z,3.00
2022-08-03T10:55:58.041Z,3.50
2022-08-03T10:58:33.585Z,3.50
2022-08-03T11:00:56.471Z,3.20
2022-08-03T11:03:19.341Z,3.40
2022-08-03T11:05:49.478Z,3.40
2022-08-03T11:08:28.285Z,3.60
2022-08-03T11:10:54.951Z,3.70
2022-08-03T11:13:21.563Z,3.30
2022-08-03T11:15:48.013Z,3.20
2022-08-03T11:18:13.926Z,3.10
2022-08-03T11:20:50.259Z,3.20
2022-08-03T11:23:14.206Z,3.30
2022-08-03T11:25:55.897Z,3.40
2022-08-03T11:28:28.877Z,3.20
2022-08-03T11:30:54.556Z,3.10
2022-08-03T11:33:29.928Z,3.40
2022-08-03T11:36:01.317Z,3.50
2022-08-03T11:38:24.944Z,3.00
2022-08-03T11:40:56.569Z,2.90
2022-08-03T11:43:22.802Z,3.00
2022-08-03T11:45:56.606Z,2.90
2022-08-03T11:48:20.651Z,2.90
2022-08-03T11:50:46.078Z,3.20
2022-08-03T11:53:13.964Z,2.70
2022-08-03T11:55:42.150Z,2.90
2022-08-03T11:59:00.900Z,3.20
2022-08-03T12:00:50.116Z,3.00
2022-08-03T12:03:16.490Z,3.20
2022-08-03T12:05:39.343Z,2.80
2022-08-03T12:08:04.759Z,3.00
2022-08-03T12:10:29.817Z,3.10
2022-08-03T12:12:57.464Z,3.00
2022-08-03T12:15:24.997Z,2.70
2022-08-03T12:17:52.775Z,2.50
2022-08-03T12:20:31.267Z,3.20
2022-08-03T12:23:10.124Z,2.90
2022-08-03T12:25:39.580Z,2.50
2022-08-03T12:28:37.128Z,2.90
2022-08-03T12:30:54.939Z,2.70
2022-08-03T12:33:20.786Z,3.00
2022-08-03T12:35:52.511Z,3.00
2022-08-03T12:38:21.060Z,3.00
2022-08-03T12:40:50.893Z,3.00
2022-08-03T12:43:14.421Z,3.30
2022-08-03T12:45:40.248Z,3.00
2022-08-03T12:48:03.001Z,3.20
2022-08-03T12:50:25.703Z,2.40
2022-08-03T12:52:49.206Z,2.80
2022-08-03T12:55:19.426Z,2.90
2022-08-03T12:57:44.339Z,3.40
2022-08-03T13:00:21.349Z,2.90
2022-08-03T13:02:46.334Z,2.60
2022-08-03T13:05:13.942Z,2.80
2022-08-03T13:07:42.050Z,2.70
2022-08-03T13:10:11.677Z,3.70
2022-08-03T13:12:45.973Z,2.80
2022-08-03T13:15:09.154Z,3.50
2022-08-03T13:17:36.794Z,3.00
2022-08-03T13:20:01.688Z,3.00
2022-08-03T13:22:29.167Z,2.90
2022-08-03T13:24:56.151Z,3.00
2022-08-03T13:28:02.291Z,2.80
2022-08-03T13:30:04.853Z,3.40
2022-08-03T13:32:30.004Z,3.20
2022-08-03T13:34:52.694Z,3.10
2022-08-03T13:37:15.839Z,3.00
2022-08-03T13:39:58.109Z,2.90
2022-08-03T13:42:21.650Z,3.20
2022-08-03T13:44:44.627Z,3.10
2022-08-03T13:47:07.279Z,3.20
2022-08-03T13:49:32.891Z,3.10
2022-08-03T13:51:56.113Z,3.30
2022-08-03T13:54:19.750Z,3.10
2022-08-03T13:56:43.406Z,3.40
2022-08-03T13:59:08.665Z,3.90
2022-08-03T14:01:54.352Z,3.70
2022-08-03T14:04:15.799Z,3.50
2022-08-03T14:06:45.952Z,3.00
2022-08-03T14:09:09.064Z,3.20
2022-08-03T14:12:07.430Z,3.30
2022-08-03T14:14:16.962Z,3.10
2022-08-03T14:16:40.085Z,3.50
2022-08-03T14:19:06.635Z,4.20
2022-08-03T14:21:29.778Z,3.00
2022-08-03T14:23:57.948Z,3.20
2022-08-03T14:26:25.522Z,3.20
2022-08-03T14:28:51.128Z,3.50
2022-08-03T14:32:09.240Z,3.60
2022-08-03T14:33:59.367Z,3.20
2022-08-03T14:36:22.206Z,3.20
2022-08-03T14:38:49.962Z,3.30
2022-08-03T14:41:19.941Z,3.30
2022-08-03T14:44:01.707Z,3.10
2022-08-03T14:46:29.748Z,3.20
2022-08-03T14:50:31.411Z,3.10
2022-08-03T14:51:37.892Z,3.10
2022-08-03T14:54:14.556Z,3.50
2022-08-03T14:56:41.205Z,3.20
2022-08-03T14:59:06.293Z,3.50
2022-08-03T15:02:04.419Z,2.90
2022-08-03T15:04:14.621Z,3.40
2022-08-03T15:06:37.298Z,3.70
2022-08-03T15:09:22.719Z,3.30
2022-08-03T15:11:45.393Z,3.30
2022-08-03T15:14:09.506Z,3.20
2022-08-03T15:16:34.989Z,3.60
2022-08-03T15:18:57.832Z,4.30
2022-08-03T15:21:46.991Z,3.20
2022-08-03T15:24:05.488Z,3.90
2022-08-03T15:26:35.378Z,3.60
2022-08-03T15:29:02.924Z,3.90
2022-08-03T15:31:25.790Z,4.30
2022-08-03T15:33:48.570Z,3.40
2022-08-03T15:36:13.559Z,4.30
2022-08-03T15:38:36.478Z,3.60
2022-08-03T15:40:59.333Z,3.60
2022-08-03T15:43:22.625Z,3.50
2022-08-03T15:45:45.417Z,3.10
2022-08-03T15:48:08.109Z,3.80
2022-08-03T15:50:30.826Z,3.80
2022-08-03T15:52:56.035Z,3.60
2022-08-03T15:55:21.253Z,4.00
2022-08-03T15:59:10.092Z,4.30
2022-08-03T16:00:33.580Z,3.80
2022-08-03T16:02:57.161Z,3.80
2022-08-03T16:05:19.717Z,3.70
2022-08-03T16:08:04.025Z,4.30
2022-08-03T16:10:30.978Z,3.80
2022-08-03T16:12:53.620Z,3.30
2022-08-03T16:15:16.368Z,3.90
2022-08-03T16:17:42.289Z,3.80
2022-08-03T16:20:10.775Z,3.90
2022-08-03T16:22:51.951Z,4.10
2022-08-03T16:25:17.920Z,3.80
2022-08-03T16:28:07.278Z,4.10
2022-08-03T16:30:23.367Z,3.70
2022-08-03T16:32:46.237Z,4.00
2022-08-03T16:35:09.342Z,3.80
2022-08-03T16:37:54.636Z,3.90
2022-08-03T16:40:21.894Z,3.70
2022-08-03T16:42:46.855Z,3.60
2022-08-03T16:45:10.253Z,4.20
2022-08-03T16:47:37.916Z,4.50
2022-08-03T16:50:08.954Z,4.00
2022-08-03T16:52:38.502Z,4.30
2022-08-03T16:55:04.605Z,4.60
2022-08-03T16:57:56.480Z,4.20
2022-08-03T17:00:34.002Z,5.00
2022-08-03T17:02:57.165Z,4.00
2022-08-03T17:05:20.210Z,3.90
2022-08-03T17:07:46.883Z,4.50
2022-08-03T17:10:14.179Z,4.10
2022-08-03T17:12:37.901Z,4.40
2022-08-03T17:15:01.429Z,3.70
2022-08-03T17:17:28.386Z,3.60
2022-08-03T17:19:55.184Z,3.10
2022-08-03T17:22:19.497Z,3.00
2022-08-03T17:25:07.670Z,3.90
2022-08-03T17:28:49.513Z,2.70
2022-08-03T17:30:19.062Z,3.00
2022-08-03T17:32:57.235Z,2.90
2022-08-03T17:35:23.418Z,3.90
2022-08-03T17:37:58.144Z,3.40
2022-08-03T17:40:27.170Z,3.40
2022-08-03T17:42:53.574Z,3.40
2022-08-03T17:45:16.364Z,3.70
2022-08-03T17:47:41.470Z,3.50
2022-08-03T17:50:09.750Z,3.60
2022-08-03T17:52:51.650Z,3.30
2022-08-03T17:55:58.652Z,3.20
2022-08-03T17:58:08.359Z,3.40
2022-08-03T18:00:51.785Z,3.50
2022-08-03T18:03:56.971Z,3.40
2022-08-03T18:06:28.865Z,4.60
2022-08-03T18:08:54.628Z,4.50
2022-08-03T18:11:21.849Z,4.30
2022-08-03T18:13:57.664Z,4.80
2022-08-03T18:16:22.970Z,4.20
2022-08-03T18:18:54.148Z,4.40
2022-08-03T18:21:17.592Z,4.70
2022-08-03T18:23:41.098Z,4.00
2022-08-03T18:26:07.579Z,4.10
2022-08-03T18:28:35.961Z,3.50
2022-08-03T18:31:04.373Z,3.60
2022-08-03T18:34:19.273Z,4.00
2022-08-03T18:36:17.722Z,4.50
2022-08-03T18:38:42.249Z,4.10
2022-08-03T18:41:14.574Z,3.70
2022-08-03T18:44:08.694Z,4.80
2022-08-03T18:46:41.038Z,4.50
2022-08-03T18:49:14.504Z,4.50
2022-08-03T18:51:43.166Z,4.80
2022-08-03T18:54:51.070Z,5.10
2022-08-03T18:57:02.993Z,5.20
2022-08-03T18:59:30.526Z,5.10
2022-08-03T19:02:01.497Z,4.80
2022-08-03T19:04:34.510Z,5.20
2022-08-03T19:07:01.116Z,5.90
2022-08-03T19:09:28.070Z,6.00
2022-08-03T19:12:12.593Z,6.40
2022-08-03T19:14:45.949Z,6.70
2022-08-03T19:17:10.308Z,9.10
2022-08-03T19:19:43.437Z,7.60
2022-08-03T19:22:09.585Z,8.80
2022-08-03T19:24:33.534Z,8.50
2022-08-03T19:26:59.035Z,7.10
2022-08-03T19:29:25.321Z,7.80
2022-08-03T19:32:11.333Z,7.20
2022-08-03T19:34:34.696Z,7.10
2022-08-03T19:37:00.749Z,8.10
2022-08-03T19:39:25.705Z,7.50
2022-08-03T19:41:51.394Z,7.30
2022-08-03T19:44:22.165Z,7.80
2022-08-03T19:46:53.815Z,7.00
2022-08-03T19:49:16.941Z,8.50
2022-08-03T19:52:01.864Z,9.90
2022-08-03T19:54:29.541Z,11.30
2022-08-03T19:56:56.152Z,10.70
2022-08-03T19:59:20.533Z,12.70
2022-08-03T20:01:50.246Z,10.80
2022-08-03T20:04:14.548Z,8.90
2022-08-03T20:06:37.895Z,11.00
2022-08-03T20:09:03.843Z,9.10
2022-08-03T20:11:30.207Z,13.50
2022-08-03T20:13:54.492Z,10.50
2022-08-03T20:16:17.222Z,10.50
2022-08-03T20:18:40.036Z,11.50
2022-08-03T20:21:05.538Z,10.50
2022-08-03T20:23:41.398Z,8.60
2022-08-03T20:26:24.051Z,11.30
2022-08-03T20:28:50.574Z,9.70
2022-08-03T20:31:14.172Z,11.60
2022-08-03T20:33:48.636Z,9.80
2022-08-03T20:36:11.893Z,12.80
2022-08-03T20:38:43.640Z,12.10
2022-08-03T20:41:09.817Z,11.90
2022-08-03T20:43:32.598Z,11.20
2022-08-03T20:45:59.187Z,11.00
2022-08-03T20:48:40.759Z,10.60
2022-08-03T20:51:19.949Z,11.00
2022-08-03T20:56:40.213Z,11.40
2022-08-03T20:59:15.118Z,15.10
2022-08-03T21:01:38.127Z,15.20
2022-08-03T21:04:04.613Z,12.80
2022-08-03T21:06:33.442Z,12.50
2022-08-03T21:09:00.577Z,11.80
2022-08-03T21:11:41.489Z,11.00
2022-08-03T21:13:14.286Z,9.90
2022-08-03T21:14:11.044Z,11.20
2022-08-03T21:16:37.916Z,9.50
2022-08-03T21:19:02.352Z,10.40
2022-08-03T21:21:26.478Z,12.60
2022-08-03T21:23:52.860Z,14.10
2022-08-03T21:26:16.765Z,11.20
2022-08-03T21:28:41.771Z,12.30
2022-08-03T21:31:09.236Z,11.90
2022-08-03T21:33:34.974Z,11.40
2022-08-03T21:36:02.168Z,10.70
2022-08-03T21:38:29.972Z,13.10
2022-08-03T21:40:57.112Z,9.70
2022-08-03T21:43:22.399Z,12.00
2022-08-03T21:46:02.147Z,10.50
2022-08-03T21:48:26.240Z,10.10
2022-08-03T21:50:54.962Z,7.90
2022-08-03T21:53:21.055Z,9.60
2022-08-03T21:55:46.875Z,11.40
2022-08-03T21:58:10.451Z,9.80
2022-08-03T22:00:35.783Z,10.40
2022-08-03T22:03:15.294Z,10.40
2022-08-03T22:05:44.305Z,9.20
2022-08-03T22:08:07.750Z,8.30
2022-08-03T22:10:30.427Z,8.60
2022-08-03T22:12:53.145Z,9.00
2022-08-03T22:15:15.892Z,8.40
2022-08-03T22:17:55.621Z,8.50
2022-08-03T22:20:20.804Z,8.20
2022-08-03T22:22:55.048Z,8.50
2022-08-03T22:25:20.770Z,9.20
2022-08-03T22:27:46.593Z,9.20
2022-08-03T22:30:13.994Z,8.60
2022-08-03T22:32:39.691Z,8.20
2022-08-03T22:35:04.050Z,8.00
2022-08-03T22:37:31.590Z,7.90
2022-08-03T22:39:54.892Z,8.50
2022-08-03T22:42:22.020Z,7.60
2022-08-03T22:44:45.279Z,8.70
2022-08-03T22:47:09.740Z,8.00
2022-08-03T22:49:32.956Z,8.80
2022-08-03T22:51:56.211Z,7.70
2022-08-03T22:54:18.884Z,8.10
2022-08-03T22:56:44.033Z,8.00
2022-08-03T22:59:40.729Z,9.00
2022-08-03T23:01:52.268Z,7.80
2022-08-03T23:04:18.832Z,7.20
2022-08-03T23:06:42.796Z,8.00
2022-08-03T23:09:09.418Z,8.00
2022-08-03T23:11:35.658Z,7.90
2022-08-03T23:13:59.497Z,8.10
2022-08-03T23:16:29.629Z,8.60
2022-08-03T23:18:53.409Z,8.00
2022-08-03T23:21:17.915Z,8.80
2022-08-03T23:24:02.072Z,7.80
2022-08-03T23:26:26.228Z,6.90
2022-08-03T23:28:49.710Z,7.40
2022-08-03T23:31:13.568Z,8.00
2022-08-03T23:33:38.669Z,7.20
2022-08-03T23:36:28.327Z,6.60
2022-08-03T23:38:48.555Z,6.90
2022-08-03T23:41:12.719Z,6.60
2022-08-03T23:43:50.852Z,7.00
2022-08-03T23:46:19.963Z,7.80
2022-08-03T23:48:44.997Z,7.30
2022-08-03T23:51:18.548Z,6.00
2022-08-03T23:53:44.900Z,6.20
2022-08-03T23:56:07.709Z,7.20
2022-08-03T23:58:48.959Z,6.20
